sensor_id;sensor_type;location;lat;lon;timestamp;P1;durP1;ratioP1;P2;durP2;ratioP2
17917;SDS011;9084;50.956;3.106;2023-12-29T00:00:39;6.65;;;1.92;;
17917;SDS011;9084;50.956;3.106;2023-12-29T00:03:05;8.57;;;2.97;;
17917;SDS011;9084;50.956;3.106;2023-12-29T00:05:35;10.50;;;2.80;;
17917;SDS011;9084;50.956;3.106;2023-12-29T00:08:01;10.77;;;2.85;;
17917;SDS011;9084;50.956;3.106;2023-12-29T00:10:27;8.25;;;2.00;;
17917;SDS011;9084;50.956;3.106;2023-12-29T00:12:52;8.10;;;1.90;;
17917;SDS011;9084;50.956;3.106;2023-12-29T00:15:18;6.28;;;2.15;;
17917;SDS011;9084;50.956;3.106;2023-12-29T00:17:44;4.85;;;1.67;;
17917;SDS011;9084;50.956;3.106;2023-12-29T00:20:11;5.07;;;2.35;;
17917;SDS011;9084;50.956;3.106;2023-12-29T00:22:39;8.13;;;1.90;;
17917;SDS011;9084;50.956;3.106;2023-12-29T00:25:05;7.20;;;1.42;;
17917;SDS011;9084;50.956;3.106;2023-12-29T00:27:33;5.93;;;2.03;;
17917;SDS011;9084;50.956;3.106;2023-12-29T00:30:00;5.53;;;1.80;;
17917;SDS011;9084;50.956;3.106;2023-12-29T00:32:26;8.05;;;1.92;;
17917;SDS011;9084;50.956;3.106;2023-12-29T00:34:52;9.85;;;2.55;;
17917;SDS011;9084;50.956;3.106;2023-12-29T00:37:19;6.82;;;1.55;;
17917;SDS011;9084;50.956;3.106;2023-12-29T00:39:45;8.85;;;2.00;;
17917;SDS011;9084;50.956;3.106;2023-12-29T00:42:11;4.03;;;1.15;;
17917;SDS011;9084;50.956;3.106;2023-12-29T00:44:36;6.60;;;1.98;;
17917;SDS011;9084;50.956;3.106;2023-12-29T00:47:02;4.28;;;1.23;;
17917;SDS011;9084;50.956;3.106;2023-12-29T00:49:28;5.00;;;1.48;;
17917;SDS011;9084;50.956;3.106;2023-12-29T00:51:54;6.78;;;1.38;;
17917;SDS011;9084;50.956;3.106;2023-12-29T00:54:19;6.40;;;1.15;;
17917;SDS011;9084;50.956;3.106;2023-12-29T00:56:51;5.85;;;1.58;;
17917;SDS011;9084;50.956;3.106;2023-12-29T00:59:18;6.68;;;1.70;;
17917;SDS011;9084;50.956;3.106;2023-12-29T01:01:46;6.30;;;1.27;;
17917;SDS011;9084;50.956;3.106;2023-12-29T01:04:12;2.80;;;1.60;;
17917;SDS011;9084;50.956;3.106;2023-12-29T01:06:37;4.88;;;1.52;;
17917;SDS011;9084;50.956;3.106;2023-12-29T01:09:03;6.00;;;1.85;;
17917;SDS011;9084;50.956;3.106;2023-12-29T01:11:31;3.50;;;1.50;;
17917;SDS011;9084;50.956;3.106;2023-12-29T01:13:56;6.80;;;2.28;;
17917;SDS011;9084;50.956;3.106;2023-12-29T01:16:24;5.63;;;2.08;;
17917;SDS011;9084;50.956;3.106;2023-12-29T01:18:52;8.02;;;1.90;;
17917;SDS011;9084;50.956;3.106;2023-12-29T01:21:18;4.65;;;2.30;;
17917;SDS011;9084;50.956;3.106;2023-12-29T01:23:46;5.65;;;1.40;;
17917;SDS011;9084;50.956;3.106;2023-12-29T01:26:11;3.72;;;1.13;;
17917;SDS011;9084;50.956;3.106;2023-12-29T01:28:39;6.15;;;1.30;;
17917;SDS011;9084;50.956;3.106;2023-12-29T01:31:05;5.00;;;1.35;;
17917;SDS011;9084;50.956;3.106;2023-12-29T01:33:34;5.75;;;1.25;;
17917;SDS011;9084;50.956;3.106;2023-12-29T01:35:59;6.03;;;1.70;;
17917;SDS011;9084;50.956;3.106;2023-12-29T01:38:25;5.78;;;1.35;;
17917;SDS011;9084;50.956;3.106;2023-12-29T01:40:51;7.80;;;1.60;;
17917;SDS011;9084;50.956;3.106;2023-12-29T01:43:16;7.60;;;1.75;;
17917;SDS011;9084;50.956;3.106;2023-12-29T01:45:42;6.88;;;1.73;;
17917;SDS011;9084;50.956;3.106;2023-12-29T01:48:10;7.78;;;1.80;;
17917;SDS011;9084;50.956;3.106;2023-12-29T01:50:36;3.90;;;1.13;;
17917;SDS011;9084;50.956;3.106;2023-12-29T01:53:05;5.85;;;1.27;;
17917;SDS011;9084;50.956;3.106;2023-12-29T01:55:31;7.32;;;1.92;;
17917;SDS011;9084;50.956;3.106;2023-12-29T01:57:57;7.63;;;1.88;;
17917;SDS011;9084;50.956;3.106;2023-12-29T02:00:24;10.70;;;1.60;;
17917;SDS011;9084;50.956;3.106;2023-12-29T02:02:50;6.00;;;1.67;;
17917;SDS011;9084;50.956;3.106;2023-12-29T02:05:16;4.55;;;1.75;;
17917;SDS011;9084;50.956;3.106;2023-12-29T02:07:45;4.82;;;1.30;;
17917;SDS011;9084;50.956;3.106;2023-12-29T02:10:11;8.45;;;2.15;;
17917;SDS011;9084;50.956;3.106;2023-12-29T02:12:40;9.45;;;1.95;;
17917;SDS011;9084;50.956;3.106;2023-12-29T02:15:06;6.13;;;1.40;;
17917;SDS011;9084;50.956;3.106;2023-12-29T02:17:52;6.15;;;1.65;;
17917;SDS011;9084;50.956;3.106;2023-12-29T02:20:28;7.03;;;1.77;;
17917;SDS011;9084;50.956;3.106;2023-12-29T02:22:54;8.38;;;1.40;;
17917;SDS011;9084;50.956;3.106;2023-12-29T02:25:20;5.88;;;2.13;;
17917;SDS011;9084;50.956;3.106;2023-12-29T02:27:59;4.68;;;1.65;;
17917;SDS011;9084;50.956;3.106;2023-12-29T02:30:38;5.65;;;1.63;;
17917;SDS011;9084;50.956;3.106;2023-12-29T02:33:17;5.38;;;1.58;;
17917;SDS011;9084;50.956;3.106;2023-12-29T02:35:46;6.10;;;1.80;;
17917;SDS011;9084;50.956;3.106;2023-12-29T02:38:15;3.97;;;1.70;;
17917;SDS011;9084;50.956;3.106;2023-12-29T02:40:41;9.88;;;1.67;;
17917;SDS011;9084;50.956;3.106;2023-12-29T02:43:08;10.25;;;2.55;;
17917;SDS011;9084;50.956;3.106;2023-12-29T02:45:34;7.43;;;2.40;;
17917;SDS011;9084;50.956;3.106;2023-12-29T02:48:00;6.22;;;2.13;;
17917;SDS011;9084;50.956;3.106;2023-12-29T02:50:33;4.97;;;1.67;;
17917;SDS011;9084;50.956;3.106;2023-12-29T02:53:01;4.17;;;1.73;;
17917;SDS011;9084;50.956;3.106;2023-12-29T02:55:29;8.90;;;2.00;;
17917;SDS011;9084;50.956;3.106;2023-12-29T02:57:57;6.30;;;1.60;;
17917;SDS011;9084;50.956;3.106;2023-12-29T03:00:22;8.65;;;2.35;;
17917;SDS011;9084;50.956;3.106;2023-12-29T03:02:48;7.63;;;2.00;;
17917;SDS011;9084;50.956;3.106;2023-12-29T03:05:14;5.57;;;1.50;;
17917;SDS011;9084;50.956;3.106;2023-12-29T03:07:40;11.10;;;2.67;;
17917;SDS011;9084;50.956;3.106;2023-12-29T03:10:08;5.22;;;1.63;;
17917;SDS011;9084;50.956;3.106;2023-12-29T03:12:34;9.63;;;1.95;;
17917;SDS011;9084;50.956;3.106;2023-12-29T03:15:00;8.95;;;1.98;;
17917;SDS011;9084;50.956;3.106;2023-12-29T03:17:28;8.13;;;1.50;;
17917;SDS011;9084;50.956;3.106;2023-12-29T03:19:56;6.53;;;2.35;;
17917;SDS011;9084;50.956;3.106;2023-12-29T03:22:21;8.82;;;2.47;;
17917;SDS011;9084;50.956;3.106;2023-12-29T03:24:48;6.15;;;1.90;;
17917;SDS011;9084;50.956;3.106;2023-12-29T03:27:13;7.50;;;1.70;;
17917;SDS011;9084;50.956;3.106;2023-12-29T03:29:39;7.30;;;1.52;;
17917;SDS011;9084;50.956;3.106;2023-12-29T03:32:05;9.82;;;2.05;;
17917;SDS011;9084;50.956;3.106;2023-12-29T03:34:32;6.85;;;1.88;;
17917;SDS011;9084;50.956;3.106;2023-12-29T03:36:58;7.28;;;2.47;;
17917;SDS011;9084;50.956;3.106;2023-12-29T03:39:23;4.90;;;1.88;;
17917;SDS011;9084;50.956;3.106;2023-12-29T03:41:49;5.30;;;1.95;;
17917;SDS011;9084;50.956;3.106;2023-12-29T03:44:14;7.70;;;2.45;;
17917;SDS011;9084;50.956;3.106;2023-12-29T03:46:41;4.35;;;1.70;;
17917;SDS011;9084;50.956;3.106;2023-12-29T03:49:08;7.35;;;1.63;;
17917;SDS011;9084;50.956;3.106;2023-12-29T03:51:33;4.68;;;1.48;;
17917;SDS011;9084;50.956;3.106;2023-12-29T03:54:02;4.10;;;1.70;;
17917;SDS011;9084;50.956;3.106;2023-12-29T03:56:28;6.53;;;1.90;;
17917;SDS011;9084;50.956;3.106;2023-12-29T03:58:54;3.45;;;1.05;;
17917;SDS011;9084;50.956;3.106;2023-12-29T04:01:22;6.65;;;1.60;;
17917;SDS011;9084;50.956;3.106;2023-12-29T04:03:48;4.40;;;1.38;;
17917;SDS011;9084;50.956;3.106;2023-12-29T04:06:16;4.25;;;1.25;;
17917;SDS011;9084;50.956;3.106;2023-12-29T04:08:41;4.78;;;1.38;;
17917;SDS011;9084;50.956;3.106;2023-12-29T04:11:07;6.40;;;1.65;;
17917;SDS011;9084;50.956;3.106;2023-12-29T04:13:32;2.20;;;1.00;;
17917;SDS011;9084;50.956;3.106;2023-12-29T04:16:00;3.70;;;1.48;;
17917;SDS011;9084;50.956;3.106;2023-12-29T04:18:26;5.97;;;1.48;;
17917;SDS011;9084;50.956;3.106;2023-12-29T04:20:53;3.95;;;1.30;;
17917;SDS011;9084;50.956;3.106;2023-12-29T04:23:19;4.90;;;1.70;;
17917;SDS011;9084;50.956;3.106;2023-12-29T04:25:45;3.03;;;1.00;;
17917;SDS011;9084;50.956;3.106;2023-12-29T04:28:11;6.25;;;1.58;;
17917;SDS011;9084;50.956;3.106;2023-12-29T04:30:36;5.53;;;1.52;;
17917;SDS011;9084;50.956;3.106;2023-12-29T04:33:05;4.72;;;1.13;;
17917;SDS011;9084;50.956;3.106;2023-12-29T04:35:30;4.75;;;1.17;;
17917;SDS011;9084;50.956;3.106;2023-12-29T04:37:56;7.75;;;1.67;;
17917;SDS011;9084;50.956;3.106;2023-12-29T04:40:27;8.05;;;1.67;;
17917;SDS011;9084;50.956;3.106;2023-12-29T04:42:55;4.05;;;1.70;;
17917;SDS011;9084;50.956;3.106;2023-12-29T04:45:20;5.13;;;1.83;;
17917;SDS011;9084;50.956;3.106;2023-12-29T04:47:46;4.05;;;1.15;;
17917;SDS011;9084;50.956;3.106;2023-12-29T04:50:12;5.40;;;1.02;;
17917;SDS011;9084;50.956;3.106;2023-12-29T04:52:37;7.13;;;1.30;;
17917;SDS011;9084;50.956;3.106;2023-12-29T04:55:03;4.70;;;1.40;;
17917;SDS011;9084;50.956;3.106;2023-12-29T04:57:29;3.03;;;0.93;;
17917;SDS011;9084;50.956;3.106;2023-12-29T04:59:54;6.18;;;1.17;;
17917;SDS011;9084;50.956;3.106;2023-12-29T05:02:20;3.50;;;1.10;;
17917;SDS011;9084;50.956;3.106;2023-12-29T05:04:48;4.03;;;1.63;;
17917;SDS011;9084;50.956;3.106;2023-12-29T05:07:14;4.03;;;1.10;;
17917;SDS011;9084;50.956;3.106;2023-12-29T05:09:39;2.03;;;0.80;;
17917;SDS011;9084;50.956;3.106;2023-12-29T05:12:06;3.17;;;0.80;;
17917;SDS011;9084;50.956;3.106;2023-12-29T05:14:31;2.55;;;1.25;;
17917;SDS011;9084;50.956;3.106;2023-12-29T05:16:58;3.25;;;1.08;;
17917;SDS011;9084;50.956;3.106;2023-12-29T05:19:26;5.72;;;1.38;;
17917;SDS011;9084;50.956;3.106;2023-12-29T05:21:52;2.30;;;0.65;;
17917;SDS011;9084;50.956;3.106;2023-12-29T05:24:19;3.83;;;1.08;;
17917;SDS011;9084;50.956;3.106;2023-12-29T05:26:44;3.25;;;1.25;;
17917;SDS011;9084;50.956;3.106;2023-12-29T05:29:10;2.85;;;0.90;;
17917;SDS011;9084;50.956;3.106;2023-12-29T05:31:35;5.63;;;1.40;;
17917;SDS011;9084;50.956;3.106;2023-12-29T05:34:01;4.57;;;1.30;;
17917;SDS011;9084;50.956;3.106;2023-12-29T05:36:27;5.07;;;1.10;;
17917;SDS011;9084;50.956;3.106;2023-12-29T05:38:52;4.18;;;1.25;;
17917;SDS011;9084;50.956;3.106;2023-12-29T05:41:18;2.60;;;1.05;;
17917;SDS011;9084;50.956;3.106;2023-12-29T05:43:44;2.83;;;1.02;;
17917;SDS011;9084;50.956;3.106;2023-12-29T05:46:10;5.05;;;1.00;;
17917;SDS011;9084;50.956;3.106;2023-12-29T05:48:38;4.85;;;1.40;;
17917;SDS011;9084;50.956;3.106;2023-12-29T05:51:08;3.35;;;1.35;;
17917;SDS011;9084;50.956;3.106;2023-12-29T05:53:34;4.28;;;1.33;;
17917;SDS011;9084;50.956;3.106;2023-12-29T05:56:00;3.72;;;0.85;;
17917;SDS011;9084;50.956;3.106;2023-12-29T05:58:25;2.67;;;1.30;;
17917;SDS011;9084;50.956;3.106;2023-12-29T06:00:51;5.22;;;1.35;;
17917;SDS011;9084;50.956;3.106;2023-12-29T06:03:17;4.05;;;1.40;;
17917;SDS011;9084;50.956;3.106;2023-12-29T06:05:44;4.18;;;1.25;;
17917;SDS011;9084;50.956;3.106;2023-12-29T06:08:10;4.22;;;1.50;;
17917;SDS011;9084;50.956;3.106;2023-12-29T06:10:40;3.95;;;1.10;;
17917;SDS011;9084;50.956;3.106;2023-12-29T06:13:08;3.05;;;1.40;;
17917;SDS011;9084;50.956;3.106;2023-12-29T06:15:34;5.45;;;1.83;;
17917;SDS011;9084;50.956;3.106;2023-12-29T06:18:01;3.92;;;1.30;;
17917;SDS011;9084;50.956;3.106;2023-12-29T06:20:27;5.60;;;1.42;;
17917;SDS011;9084;50.956;3.106;2023-12-29T06:22:55;2.58;;;1.10;;
17917;SDS011;9084;50.956;3.106;2023-12-29T06:25:21;2.75;;;1.10;;
17917;SDS011;9084;50.956;3.106;2023-12-29T06:27:47;3.05;;;0.82;;
17917;SDS011;9084;50.956;3.106;2023-12-29T06:30:15;5.15;;;1.60;;
17917;SDS011;9084;50.956;3.106;2023-12-29T06:32:41;2.65;;;0.98;;
17917;SDS011;9084;50.956;3.106;2023-12-29T06:35:06;5.07;;;1.05;;
17917;SDS011;9084;50.956;3.106;2023-12-29T06:37:34;4.18;;;1.15;;
17917;SDS011;9084;50.956;3.106;2023-12-29T06:40:02;4.70;;;1.20;;
17917;SDS011;9084;50.956;3.106;2023-12-29T06:42:28;2.97;;;1.20;;
17917;SDS011;9084;50.956;3.106;2023-12-29T06:44:54;3.30;;;0.90;;
17917;SDS011;9084;50.956;3.106;2023-12-29T06:47:20;4.63;;;1.02;;
17917;SDS011;9084;50.956;3.106;2023-12-29T06:49:45;3.85;;;0.93;;
17917;SDS011;9084;50.956;3.106;2023-12-29T06:52:11;3.13;;;0.93;;
17917;SDS011;9084;50.956;3.106;2023-12-29T06:54:39;3.25;;;0.98;;
17917;SDS011;9084;50.956;3.106;2023-12-29T06:57:07;3.13;;;0.80;;
17917;SDS011;9084;50.956;3.106;2023-12-29T06:59:32;2.65;;;0.70;;
17917;SDS011;9084;50.956;3.106;2023-12-29T07:01:58;2.33;;;0.90;;
17917;SDS011;9084;50.956;3.106;2023-12-29T07:04:24;3.35;;;0.70;;
17917;SDS011;9084;50.956;3.106;2023-12-29T07:06:52;3.78;;;1.02;;
17917;SDS011;9084;50.956;3.106;2023-12-29T07:09:18;4.57;;;1.30;;
17917;SDS011;9084;50.956;3.106;2023-12-29T07:11:50;1.40;;;0.22;;
17917;SDS011;9084;50.956;3.106;2023-12-29T07:14:20;2.13;;;0.40;;
17917;SDS011;9084;50.956;3.106;2023-12-29T07:16:48;1.88;;;0.25;;
17917;SDS011;9084;50.956;3.106;2023-12-29T07:19:16;0.90;;;0.30;;
17917;SDS011;9084;50.956;3.106;2023-12-29T07:21:42;1.33;;;0.32;;
17917;SDS011;9084;50.956;3.106;2023-12-29T07:24:08;3.00;;;0.30;;
17917;SDS011;9084;50.956;3.106;2023-12-29T07:26:34;2.15;;;0.45;;
17917;SDS011;9084;50.956;3.106;2023-12-29T07:29:02;1.48;;;0.43;;
17917;SDS011;9084;50.956;3.106;2023-12-29T07:31:28;1.55;;;0.30;;
17917;SDS011;9084;50.956;3.106;2023-12-29T07:33:58;1.83;;;0.40;;
17917;SDS011;9084;50.956;3.106;2023-12-29T07:36:27;2.22;;;0.30;;
17917;SDS011;9084;50.956;3.106;2023-12-29T07:38:52;1.40;;;0.30;;
17917;SDS011;9084;50.956;3.106;2023-12-29T07:41:18;0.85;;;0.20;;
17917;SDS011;9084;50.956;3.106;2023-12-29T07:43:44;0.82;;;0.20;;
17917;SDS011;9084;50.956;3.106;2023-12-29T07:46:09;1.98;;;0.25;;
17917;SDS011;9084;50.956;3.106;2023-12-29T07:48:37;1.35;;;0.43;;
17917;SDS011;9084;50.956;3.106;2023-12-29T07:51:04;2.40;;;0.40;;
17917;SDS011;9084;50.956;3.106;2023-12-29T07:53:31;2.33;;;0.50;;
17917;SDS011;9084;50.956;3.106;2023-12-29T07:55:56;1.48;;;0.22;;
17917;SDS011;9084;50.956;3.106;2023-12-29T07:58:24;1.48;;;0.28;;
17917;SDS011;9084;50.956;3.106;2023-12-29T08:00:50;0.40;;;0.20;;
17917;SDS011;9084;50.956;3.106;2023-12-29T08:03:16;1.13;;;0.68;;
17917;SDS011;9084;50.956;3.106;2023-12-29T08:05:43;2.08;;;0.70;;
17917;SDS011;9084;50.956;3.106;2023-12-29T08:08:11;3.78;;;1.38;;
17917;SDS011;9084;50.956;3.106;2023-12-29T08:10:39;4.45;;;0.52;;
17917;SDS011;9084;50.956;3.106;2023-12-29T08:13:04;1.52;;;0.50;;
17917;SDS011;9084;50.956;3.106;2023-12-29T08:15:34;2.63;;;0.75;;
17917;SDS011;9084;50.956;3.106;2023-12-29T08:18:02;3.50;;;0.80;;
17917;SDS011;9084;50.956;3.106;2023-12-29T08:20:29;1.88;;;0.52;;
17917;SDS011;9084;50.956;3.106;2023-12-29T08:22:55;3.30;;;0.88;;
17917;SDS011;9084;50.956;3.106;2023-12-29T08:25:21;1.67;;;0.65;;
17917;SDS011;9084;50.956;3.106;2023-12-29T08:27:48;1.45;;;0.50;;
17917;SDS011;9084;50.956;3.106;2023-12-29T08:30:16;0.88;;;0.35;;
17917;SDS011;9084;50.956;3.106;2023-12-29T08:32:43;1.92;;;0.43;;
17917;SDS011;9084;50.956;3.106;2023-12-29T08:35:09;3.83;;;0.63;;
17917;SDS011;9084;50.956;3.106;2023-12-29T08:37:35;1.63;;;0.35;;
17917;SDS011;9084;50.956;3.106;2023-12-29T08:40:03;3.42;;;0.55;;
17917;SDS011;9084;50.956;3.106;2023-12-29T08:42:31;1.58;;;0.90;;
17917;SDS011;9084;50.956;3.106;2023-12-29T08:44:59;2.20;;;0.70;;
17917;SDS011;9084;50.956;3.106;2023-12-29T08:47:25;3.53;;;0.60;;
17917;SDS011;9084;50.956;3.106;2023-12-29T08:49:51;2.47;;;0.38;;
17917;SDS011;9084;50.956;3.106;2023-12-29T08:52:19;1.38;;;0.50;;
17917;SDS011;9084;50.956;3.106;2023-12-29T08:54:45;1.25;;;0.40;;
17917;SDS011;9084;50.956;3.106;2023-12-29T08:57:11;2.47;;;0.70;;
17917;SDS011;9084;50.956;3.106;2023-12-29T08:59:36;2.42;;;0.60;;
17917;SDS011;9084;50.956;3.106;2023-12-29T09:02:03;1.08;;;0.30;;
17917;SDS011;9084;50.956;3.106;2023-12-29T09:04:28;2.83;;;0.70;;
17917;SDS011;9084;50.956;3.106;2023-12-29T09:06:54;1.55;;;0.50;;
17917;SDS011;9084;50.956;3.106;2023-12-29T09:09:20;2.05;;;0.40;;
17917;SDS011;9084;50.956;3.106;2023-12-29T09:11:45;3.40;;;0.60;;
17917;SDS011;9084;50.956;3.106;2023-12-29T09:14:12;0.80;;;0.30;;
17917;SDS011;9084;50.956;3.106;2023-12-29T09:16:38;3.13;;;0.70;;
17917;SDS011;9084;50.956;3.106;2023-12-29T09:19:05;3.20;;;0.70;;
17917;SDS011;9084;50.956;3.106;2023-12-29T09:21:31;3.67;;;0.90;;
17917;SDS011;9084;50.956;3.106;2023-12-29T09:23:56;3.90;;;0.77;;
17917;SDS011;9084;50.956;3.106;2023-12-29T09:26:23;1.60;;;0.43;;
17917;SDS011;9084;50.956;3.106;2023-12-29T09:28:51;1.77;;;0.70;;
17917;SDS011;9084;50.956;3.106;2023-12-29T09:31:17;2.55;;;0.60;;
17917;SDS011;9084;50.956;3.106;2023-12-29T09:33:43;1.90;;;0.60;;
17917;SDS011;9084;50.956;3.106;2023-12-29T09:36:13;5.75;;;1.02;;
17917;SDS011;9084;50.956;3.106;2023-12-29T09:38:39;2.85;;;0.88;;
17917;SDS011;9084;50.956;3.106;2023-12-29T09:41:11;3.75;;;1.10;;
17917;SDS011;9084;50.956;3.106;2023-12-29T09:43:40;2.67;;;1.00;;
17917;SDS011;9084;50.956;3.106;2023-12-29T09:46:06;5.32;;;1.77;;
17917;SDS011;9084;50.956;3.106;2023-12-29T09:48:33;3.70;;;1.42;;
17917;SDS011;9084;50.956;3.106;2023-12-29T09:51:00;4.82;;;1.35;;
17917;SDS011;9084;50.956;3.106;2023-12-29T09:53:26;7.72;;;1.98;;
17917;SDS011;9084;50.956;3.106;2023-12-29T09:55:55;5.82;;;1.45;;
17917;SDS011;9084;50.956;3.106;2023-12-29T09:58:28;8.13;;;1.60;;
17917;SDS011;9084;50.956;3.106;2023-12-29T10:00:56;6.93;;;1.73;;
17917;SDS011;9084;50.956;3.106;2023-12-29T10:03:22;4.50;;;1.45;;
17917;SDS011;9084;50.956;3.106;2023-12-29T10:05:50;7.00;;;1.52;;
17917;SDS011;9084;50.956;3.106;2023-12-29T10:08:19;5.60;;;1.80;;
17917;SDS011;9084;50.956;3.106;2023-12-29T10:10:47;8.18;;;1.95;;
17917;SDS011;9084;50.956;3.106;2023-12-29T10:13:15;7.43;;;1.77;;
17917;SDS011;9084;50.956;3.106;2023-12-29T10:18:14;8.68;;;1.90;;
17917;SDS011;9084;50.956;3.106;2023-12-29T10:23:23;8.15;;;2.03;;
17917;SDS011;9084;50.956;3.106;2023-12-29T10:26:00;7.13;;;2.05;;
17917;SDS011;9084;50.956;3.106;2023-12-29T10:28:26;8.27;;;2.28;;
17917;SDS011;9084;50.956;3.106;2023-12-29T10:30:54;8.60;;;1.50;;
17917;SDS011;9084;50.956;3.106;2023-12-29T10:33:22;6.50;;;1.85;;
17917;SDS011;9084;50.956;3.106;2023-12-29T10:38:34;6.75;;;1.95;;
17917;SDS011;9084;50.956;3.106;2023-12-29T10:43:41;6.95;;;1.95;;
17917;SDS011;9084;50.956;3.106;2023-12-29T10:46:09;9.50;;;2.28;;
17917;SDS011;9084;50.956;3.106;2023-12-29T10:48:39;7.20;;;1.95;;
17917;SDS011;9084;50.956;3.106;2023-12-29T10:51:05;5.13;;;2.05;;
17917;SDS011;9084;50.956;3.106;2023-12-29T10:53:32;4.15;;;1.90;;
17917;SDS011;9084;50.956;3.106;2023-12-29T10:55:58;5.45;;;1.35;;
17917;SDS011;9084;50.956;3.106;2023-12-29T10:58:28;8.00;;;1.80;;
17917;SDS011;9084;50.956;3.106;2023-12-29T11:00:57;6.32;;;1.98;;
17917;SDS011;9084;50.956;3.106;2023-12-29T11:03:23;5.97;;;1.60;;
17917;SDS011;9084;50.956;3.106;2023-12-29T11:05:49;3.75;;;1.23;;
17917;SDS011;9084;50.956;3.106;2023-12-29T11:08:23;2.67;;;1.00;;
17917;SDS011;9084;50.956;3.106;2023-12-29T11:10:49;4.03;;;0.90;;
17917;SDS011;9084;50.956;3.106;2023-12-29T11:13:15;2.83;;;0.65;;
17917;SDS011;9084;50.956;3.106;2023-12-29T11:15:43;5.68;;;1.58;;
17917;SDS011;9084;50.956;3.106;2023-12-29T11:18:11;4.13;;;1.13;;
17917;SDS011;9084;50.956;3.106;2023-12-29T11:20:39;2.67;;;1.02;;
17917;SDS011;9084;50.956;3.106;2023-12-29T11:23:07;5.30;;;0.90;;
17917;SDS011;9084;50.956;3.106;2023-12-29T11:25:34;4.45;;;0.75;;
17917;SDS011;9084;50.956;3.106;2023-12-29T11:28:01;3.03;;;1.13;;
17917;SDS011;9084;50.956;3.106;2023-12-29T11:30:27;1.50;;;0.88;;
17917;SDS011;9084;50.956;3.106;2023-12-29T11:32:59;1.90;;;0.70;;
17917;SDS011;9084;50.956;3.106;2023-12-29T11:43:20;1.48;;;0.63;;
17917;SDS011;9084;50.956;3.106;2023-12-29T11:45:48;1.58;;;0.60;;
17917;SDS011;9084;50.956;3.106;2023-12-29T11:48:53;2.33;;;0.50;;
17917;SDS011;9084;50.956;3.106;2023-12-29T11:51:30;2.40;;;0.90;;
17917;SDS011;9084;50.956;3.106;2023-12-29T11:54:03;1.52;;;0.40;;
17917;SDS011;9084;50.956;3.106;2023-12-29T11:59:46;1.95;;;0.38;;
17917;SDS011;9084;50.956;3.106;2023-12-29T12:01:46;1.52;;;0.45;;
17917;SDS011;9084;50.956;3.106;2023-12-29T12:07:02;1.15;;;0.32;;
17917;SDS011;9084;50.956;3.106;2023-12-29T12:09:31;1.23;;;0.30;;
17917;SDS011;9084;50.956;3.106;2023-12-29T12:11:59;0.50;;;0.40;;
17917;SDS011;9084;50.956;3.106;2023-12-29T12:17:26;1.02;;;0.30;;
17917;SDS011;9084;50.956;3.106;2023-12-29T12:19:56;0.85;;;0.35;;
17917;SDS011;9084;50.956;3.106;2023-12-29T12:22:28;1.45;;;0.50;;
17917;SDS011;9084;50.956;3.106;2023-12-29T12:24:57;1.20;;;0.43;;
17917;SDS011;9084;50.956;3.106;2023-12-29T12:27:27;1.88;;;0.40;;
17917;SDS011;9084;50.956;3.106;2023-12-29T12:29:53;1.17;;;0.47;;
17917;SDS011;9084;50.956;3.106;2023-12-29T12:32:24;1.48;;;0.60;;
17917;SDS011;9084;50.956;3.106;2023-12-29T12:34:51;2.42;;;0.77;;
17917;SDS011;9084;50.956;3.106;2023-12-29T12:39:47;3.60;;;0.50;;
17917;SDS011;9084;50.956;3.106;2023-12-29T12:42:13;1.35;;;0.32;;
17917;SDS011;9084;50.956;3.106;2023-12-29T12:44:46;1.92;;;0.60;;
17917;SDS011;9084;50.956;3.106;2023-12-29T12:47:32;1.48;;;0.50;;
17917;SDS011;9084;50.956;3.106;2023-12-29T12:50:01;1.55;;;0.80;;
17917;SDS011;9084;50.956;3.106;2023-12-29T12:52:33;2.00;;;0.65;;
17917;SDS011;9084;50.956;3.106;2023-12-29T12:55:01;1.20;;;0.50;;
17917;SDS011;9084;50.956;3.106;2023-12-29T12:57:30;0.70;;;0.50;;
17917;SDS011;9084;50.956;3.106;2023-12-29T12:59:56;1.35;;;0.70;;
17917;SDS011;9084;50.956;3.106;2023-12-29T13:02:23;3.65;;;0.77;;
17917;SDS011;9084;50.956;3.106;2023-12-29T13:04:50;3.30;;;0.80;;
17917;SDS011;9084;50.956;3.106;2023-12-29T13:07:19;1.40;;;0.60;;
17917;SDS011;9084;50.956;3.106;2023-12-29T13:09:47;2.88;;;0.70;;
17917;SDS011;9084;50.956;3.106;2023-12-29T13:12:16;1.33;;;0.52;;
17917;SDS011;9084;50.956;3.106;2023-12-29T13:14:45;3.42;;;0.75;;
17917;SDS011;9084;50.956;3.106;2023-12-29T13:17:12;2.85;;;0.60;;
17917;SDS011;9084;50.956;3.106;2023-12-29T13:19:39;1.70;;;0.50;;
17917;SDS011;9084;50.956;3.106;2023-12-29T13:22:09;3.40;;;0.73;;
17917;SDS011;9084;50.956;3.106;2023-12-29T13:24:43;1.05;;;0.30;;
17917;SDS011;9084;50.956;3.106;2023-12-29T13:27:12;2.17;;;0.60;;
17917;SDS011;9084;50.956;3.106;2023-12-29T13:29:38;1.63;;;0.65;;
17917;SDS011;9084;50.956;3.106;2023-12-29T13:32:12;2.17;;;0.65;;
17917;SDS011;9084;50.956;3.106;2023-12-29T13:34:57;2.67;;;0.70;;
17917;SDS011;9084;50.956;3.106;2023-12-29T13:37:34;1.65;;;0.60;;
17917;SDS011;9084;50.956;3.106;2023-12-29T13:40:14;2.65;;;0.80;;
17917;SDS011;9084;50.956;3.106;2023-12-29T13:42:49;4.30;;;0.85;;
17917;SDS011;9084;50.956;3.106;2023-12-29T13:45:21;4.72;;;1.30;;
17917;SDS011;9084;50.956;3.106;2023-12-29T13:47:49;3.00;;;1.13;;
17917;SDS011;9084;50.956;3.106;2023-12-29T13:50:15;1.35;;;0.70;;
17917;SDS011;9084;50.956;3.106;2023-12-29T13:52:44;2.38;;;0.90;;
17917;SDS011;9084;50.956;3.106;2023-12-29T13:55:09;2.70;;;0.57;;
17917;SDS011;9084;50.956;3.106;2023-12-29T13:57:35;2.95;;;1.05;;
17917;SDS011;9084;50.956;3.106;2023-12-29T14:00:19;3.58;;;1.13;;
17917;SDS011;9084;50.956;3.106;2023-12-29T14:02:57;3.58;;;1.40;;
17917;SDS011;9084;50.956;3.106;2023-12-29T14:05:27;3.50;;;1.00;;
17917;SDS011;9084;50.956;3.106;2023-12-29T14:08:26;3.72;;;1.45;;
17917;SDS011;9084;50.956;3.106;2023-12-29T14:11:07;5.00;;;1.13;;
17917;SDS011;9084;50.956;3.106;2023-12-29T14:13:45;4.60;;;1.30;;
17917;SDS011;9084;50.956;3.106;2023-12-29T14:16:13;3.10;;;1.17;;
17917;SDS011;9084;50.956;3.106;2023-12-29T14:21:27;6.95;;;2.00;;
17917;SDS011;9084;50.956;3.106;2023-12-29T14:23:57;5.15;;;1.48;;
17917;SDS011;9084;50.956;3.106;2023-12-29T14:26:32;3.13;;;1.20;;
17917;SDS011;9084;50.956;3.106;2023-12-29T14:29:04;8.68;;;1.35;;
17917;SDS011;9084;50.956;3.106;2023-12-29T14:31:32;5.82;;;1.48;;
17917;SDS011;9084;50.956;3.106;2023-12-29T14:34:00;7.45;;;1.42;;
17917;SDS011;9084;50.956;3.106;2023-12-29T14:36:26;5.60;;;1.48;;
17917;SDS011;9084;50.956;3.106;2023-12-29T14:38:52;7.38;;;1.67;;
17917;SDS011;9084;50.956;3.106;2023-12-29T14:41:18;8.18;;;2.25;;
17917;SDS011;9084;50.956;3.106;2023-12-29T14:43:43;6.15;;;2.42;;
17917;SDS011;9084;50.956;3.106;2023-12-29T14:46:11;6.93;;;2.22;;
17917;SDS011;9084;50.956;3.106;2023-12-29T14:48:37;11.55;;;3.00;;
17917;SDS011;9084;50.956;3.106;2023-12-29T14:51:04;8.48;;;2.25;;
17917;SDS011;9084;50.956;3.106;2023-12-29T14:53:30;8.18;;;2.15;;
17917;SDS011;9084;50.956;3.106;2023-12-29T14:55:56;8.35;;;2.40;;
17917;SDS011;9084;50.956;3.106;2023-12-29T14:58:21;5.53;;;1.85;;
17917;SDS011;9084;50.956;3.106;2023-12-29T15:00:47;5.40;;;1.63;;
17917;SDS011;9084;50.956;3.106;2023-12-29T15:03:13;4.13;;;1.58;;
17917;SDS011;9084;50.956;3.106;2023-12-29T15:05:43;10.35;;;2.03;;
17917;SDS011;9084;50.956;3.106;2023-12-29T15:08:09;11.13;;;2.05;;
17917;SDS011;9084;50.956;3.106;2023-12-29T15:10:34;5.13;;;1.38;;
17917;SDS011;9084;50.956;3.106;2023-12-29T15:13:01;7.88;;;2.45;;
17917;SDS011;9084;50.956;3.106;2023-12-29T15:15:27;14.50;;;2.10;;
17917;SDS011;9084;50.956;3.106;2023-12-29T15:17:52;8.13;;;1.88;;
17917;SDS011;9084;50.956;3.106;2023-12-29T15:20:25;8.82;;;2.10;;
17917;SDS011;9084;50.956;3.106;2023-12-29T15:22:53;5.50;;;2.08;;
17917;SDS011;9084;50.956;3.106;2023-12-29T15:25:24;12.32;;;2.63;;
17917;SDS011;9084;50.956;3.106;2023-12-29T15:27:52;6.32;;;1.95;;
17917;SDS011;9084;50.956;3.106;2023-12-29T15:30:18;11.60;;;2.83;;
17917;SDS011;9084;50.956;3.106;2023-12-29T15:32:44;9.98;;;2.28;;
17917;SDS011;9084;50.956;3.106;2023-12-29T15:35:10;10.95;;;2.45;;